sensor_id;sensor_type;location;lat;lon;timestamp;temperature;humidity
12386;DHT22;6257;57.634;18.310;2023-09-19T00:00:17;17.40;99.90
12386;DHT22;6257;57.634;18.310;2023-09-19T00:02:46;17.40;99.90
12386;DHT22;6257;57.634;18.310;2023-09-19T00:05:14;17.40;99.90
12386;DHT22;6257;57.634;18.310;2023-09-19T00:07:41;17.40;99.90
12386;DHT22;6257;57.634;18.310;2023-09-19T00:10:08;17.40;99.90
12386;DHT22;6257;57.634;18.310;2023-09-19T00:12:36;17.40;99.90
12386;DHT22;6257;57.634;18.310;2023-09-19T00:15:06;17.40;99.90
12386;DHT22;6257;57.634;18.310;2023-09-19T00:17:33;17.50;99.90
12386;DHT22;6257;57.634;18.310;2023-09-19T00:20:00;17.50;99.90
12386;DHT22;6257;57.634;18.310;2023-09-19T00:22:40;17.50;99.90
12386;DHT22;6257;57.634;18.310;2023-09-19T00:25:08;17.50;99.90
12386;DHT22;6257;57.634;18.310;2023-09-19T00:27:37;17.50;99.90
12386;DHT22;6257;57.634;18.310;2023-09-19T00:30:09;17.60;99.90
12386;DHT22;6257;57.634;18.310;2023-09-19T00:32:40;17.60;99.90
12386;DHT22;6257;57.634;18.310;2023-09-19T00:35:07;17.60;99.90
12386;DHT22;6257;57.634;18.310;2023-09-19T00:37:36;17.60;99.90
12386;DHT22;6257;57.634;18.310;2023-09-19T00:40:03;17.60;99.90
12386;DHT22;6257;57.634;18.310;2023-09-19T00:42:31;17.60;99.90
12386;DHT22;6257;57.634;18.310;2023-09-19T00:44:59;17.70;99.90
12386;DHT22;6257;57.634;18.310;2023-09-19T00:49:57;17.80;99.90
12386;DHT22;6257;57.634;18.310;2023-09-19T00:52:25;17.80;99.90
12386;DHT22;6257;57.634;18.310;2023-09-19T00:54:52;17.80;99.90
12386;DHT22;6257;57.634;18.310;2023-09-19T00:57:20;17.70;99.90
12386;DHT22;6257;57.634;18.310;2023-09-19T00:59:50;17.70;99.90
12386;DHT22;6257;57.634;18.310;2023-09-19T01:02:21;17.70;99.90
12386;DHT22;6257;57.634;18.310;2023-09-19T01:04:49;17.70;99.90
12386;DHT22;6257;57.634;18.310;2023-09-19T01:07:17;17.70;99.90
12386;DHT22;6257;57.634;18.310;2023-09-19T01:09:44;17.80;99.90
12386;DHT22;6257;57.634;18.310;2023-09-19T01:12:16;17.80;99.90
12386;DHT22;6257;57.634;18.310;2023-09-19T01:14:54;17.80;99.90
12386;DHT22;6257;57.634;18.310;2023-09-19T01:17:27;17.80;99.90
12386;DHT22;6257;57.634;18.310;2023-09-19T01:20:15;17.80;99.90
12386;DHT22;6257;57.634;18.310;2023-09-19T01:22:53;17.80;99.90
12386;DHT22;6257;57.634;18.310;2023-09-19T01:28:52;17.80;99.90
12386;DHT22;6257;57.634;18.310;2023-09-19T01:31:23;17.80;99.90
12386;DHT22;6257;57.634;18.310;2023-09-19T01:33:59;17.70;99.90
12386;DHT22;6257;57.634;18.310;2023-09-19T01:36:29;17.70;99.90
12386;DHT22;6257;57.634;18.310;2023-09-19T01:38:58;17.80;99.90
12386;DHT22;6257;57.634;18.310;2023-09-19T01:41:37;17.80;99.90
12386;DHT22;6257;57.634;18.310;2023-09-19T01:44:08;17.80;99.90
12386;DHT22;6257;57.634;18.310;2023-09-19T01:46:39;17.80;99.90
12386;DHT22;6257;57.634;18.310;2023-09-19T01:49:15;17.80;99.90
12386;DHT22;6257;57.634;18.310;2023-09-19T01:51:53;17.80;99.90
12386;DHT22;6257;57.634;18.310;2023-09-19T01:54:26;17.70;99.90
12386;DHT22;6257;57.634;18.310;2023-09-19T01:57:01;17.80;99.90
12386;DHT22;6257;57.634;18.310;2023-09-19T01:59:35;17.80;99.90
12386;DHT22;6257;57.634;18.310;2023-09-19T02:02:06;17.70;99.90
12386;DHT22;6257;57.634;18.310;2023-09-19T02:04:34;17.70;99.90
12386;DHT22;6257;57.634;18.310;2023-09-19T02:07:02;17.70;99.90
12386;DHT22;6257;57.634;18.310;2023-09-19T02:09:31;17.60;99.90
12386;DHT22;6257;57.634;18.310;2023-09-19T02:11:58;17.60;99.90
12386;DHT22;6257;57.634;18.310;2023-09-19T02:14:25;17.70;99.90
12386;DHT22;6257;57.634;18.310;2023-09-19T02:16:53;17.60;99.90
12386;DHT22;6257;57.634;18.310;2023-09-19T02:21:50;17.60;99.90
12386;DHT22;6257;57.634;18.310;2023-09-19T02:24:18;17.60;99.90
12386;DHT22;6257;57.634;18.310;2023-09-19T02:26:45;17.70;99.90
12386;DHT22;6257;57.634;18.310;2023-09-19T02:29:12;17.70;99.90
12386;DHT22;6257;57.634;18.310;2023-09-19T02:31:39;17.60;99.90
12386;DHT22;6257;57.634;18.310;2023-09-19T02:34:08;17.60;99.90
12386;DHT22;6257;57.634;18.310;2023-09-19T02:36:37;17.60;99.90
12386;DHT22;6257;57.634;18.310;2023-09-19T02:39:05;17.60;99.90
12386;DHT22;6257;57.634;18.310;2023-09-19T02:41:34;17.60;99.90
12386;DHT22;6257;57.634;18.310;2023-09-19T02:44:01;17.50;99.90
12386;DHT22;6257;57.634;18.310;2023-09-19T02:46:28;17.50;99.90
12386;DHT22;6257;57.634;18.310;2023-09-19T02:48:55;17.50;99.90
12386;DHT22;6257;57.634;18.310;2023-09-19T02:51:22;17.40;99.90
12386;DHT22;6257;57.634;18.310;2023-09-19T02:53:51;17.40;99.90
12386;DHT22;6257;57.634;18.310;2023-09-19T02:56:20;17.50;99.90
12386;DHT22;6257;57.634;18.310;2023-09-19T02:58:48;17.50;99.90
12386;DHT22;6257;57.634;18.310;2023-09-19T03:01:15;17.50;99.90
12386;DHT22;6257;57.634;18.310;2023-09-19T03:03:44;17.50;99.90
12386;DHT22;6257;57.634;18.310;2023-09-19T03:06:11;17.40;99.90
12386;DHT22;6257;57.634;18.310;2023-09-19T03:08:39;17.40;99.90
12386;DHT22;6257;57.634;18.310;2023-09-19T03:11:09;17.40;99.90
12386;DHT22;6257;57.634;18.310;2023-09-19T03:13:38;17.40;99.90
12386;DHT22;6257;57.634;18.310;2023-09-19T03:16:05;17.40;99.90
12386;DHT22;6257;57.634;18.310;2023-09-19T03:18:34;17.40;99.90
12386;DHT22;6257;57.634;18.310;2023-09-19T03:21:01;17.40;99.90
12386;DHT22;6257;57.634;18.310;2023-09-19T03:23:28;17.40;99.90
12386;DHT22;6257;57.634;18.310;2023-09-19T03:25:56;17.40;99.90
12386;DHT22;6257;57.634;18.310;2023-09-19T03:28:26;17.40;99.90
12386;DHT22;6257;57.634;18.310;2023-09-19T03:31:00;17.40;99.90
12386;DHT22;6257;57.634;18.310;2023-09-19T03:33:27;17.40;99.90
12386;DHT22;6257;57.634;18.310;2023-09-19T03:35:57;17.30;99.90
12386;DHT22;6257;57.634;18.310;2023-09-19T03:38:24;17.30;99.90
12386;DHT22;6257;57.634;18.310;2023-09-19T03:40:51;17.30;99.90
12386;DHT22;6257;57.634;18.310;2023-09-19T03:43:18;17.30;99.90
12386;DHT22;6257;57.634;18.310;2023-09-19T03:48:16;17.30;99.90
12386;DHT22;6257;57.634;18.310;2023-09-19T03:50:43;17.30;99.90
12386;DHT22;6257;57.634;18.310;2023-09-19T03:53:10;17.30;99.90
12386;DHT22;6257;57.634;18.310;2023-09-19T03:55:37;17.40;99.90
12386;DHT22;6257;57.634;18.310;2023-09-19T03:58:05;17.40;99.90
12386;DHT22;6257;57.634;18.310;2023-09-19T04:00:32;17.50;99.90
12386;DHT22;6257;57.634;18.310;2023-09-19T04:03:01;17.50;99.90
12386;DHT22;6257;57.634;18.310;2023-09-19T04:05:31;17.50;99.90
12386;DHT22;6257;57.634;18.310;2023-09-19T04:07:59;17.60;99.90
12386;DHT22;6257;57.634;18.310;2023-09-19T04:10:26;17.60;99.90
12386;DHT22;6257;57.634;18.310;2023-09-19T04:12:54;17.60;99.90
12386;DHT22;6257;57.634;18.310;2023-09-19T04:15:23;17.60;99.90
12386;DHT22;6257;57.634;18.310;2023-09-19T04:17:50;17.60;99.90
12386;DHT22;6257;57.634;18.310;2023-09-19T04:20:19;17.60;99.90
12386;DHT22;6257;57.634;18.310;2023-09-19T04:22:48;17.60;99.90
12386;DHT22;6257;57.634;18.310;2023-09-19T04:25:15;17.60;99.90
12386;DHT22;6257;57.634;18.310;2023-09-19T04:27:44;17.60;99.90
12386;DHT22;6257;57.634;18.310;2023-09-19T04:30:12;17.60;99.90
12386;DHT22;6257;57.634;18.310;2023-09-19T04:32:40;17.60;99.90
12386;DHT22;6257;57.634;18.310;2023-09-19T04:35:09;17.60;99.90
12386;DHT22;6257;57.634;18.310;2023-09-19T04:37:39;17.50;99.90
12386;DHT22;6257;57.634;18.310;2023-09-19T04:40:08;17.50;99.90
12386;DHT22;6257;57.634;18.310;2023-09-19T04:42:40;17.50;99.90
12386;DHT22;6257;57.634;18.310;2023-09-19T04:45:08;17.40;99.90
12386;DHT22;6257;57.634;18.310;2023-09-19T04:47:36;17.40;99.90
12386;DHT22;6257;57.634;18.310;2023-09-19T04:50:06;17.40;99.90
12386;DHT22;6257;57.634;18.310;2023-09-19T04:52:33;17.30;99.90
12386;DHT22;6257;57.634;18.310;2023-09-19T04:55:02;17.30;99.90
12386;DHT22;6257;57.634;18.310;2023-09-19T04:57:30;17.30;99.90
12386;DHT22;6257;57.634;18.310;2023-09-19T04:59:57;17.30;99.90
12386;DHT22;6257;57.634;18.310;2023-09-19T05:02:24;17.40;99.90
12386;DHT22;6257;57.634;18.310;2023-09-19T05:04:51;17.30;99.90
12386;DHT22;6257;57.634;18.310;2023-09-19T05:07:19;17.30;99.90
12386;DHT22;6257;57.634;18.310;2023-09-19T05:09:47;17.30;99.90
12386;DHT22;6257;57.634;18.310;2023-09-19T05:12:16;17.30;99.90
12386;DHT22;6257;57.634;18.310;2023-09-19T05:14:45;17.30;99.90
12386;DHT22;6257;57.634;18.310;2023-09-19T05:17:13;17.30;99.90
12386;DHT22;6257;57.634;18.310;2023-09-19T05:19:42;17.40;99.90
12386;DHT22;6257;57.634;18.310;2023-09-19T05:22:09;17.40;99.90
12386;DHT22;6257;57.634;18.310;2023-09-19T05:24:38;17.40;99.90
12386;DHT22;6257;57.634;18.310;2023-09-19T05:27:05;17.40;99.90
12386;DHT22;6257;57.634;18.310;2023-09-19T05:29:34;17.40;99.90
12386;DHT22;6257;57.634;18.310;2023-09-19T05:32:01;17.40;99.90
12386;DHT22;6257;57.634;18.310;2023-09-19T05:34:29;17.40;99.90
12386;DHT22;6257;57.634;18.310;2023-09-19T05:36:56;17.40;99.90
12386;DHT22;6257;57.634;18.310;2023-09-19T05:39:23;17.40;99.90
12386;DHT22;6257;57.634;18.310;2023-09-19T05:41:50;17.40;99.90
12386;DHT22;6257;57.634;18.310;2023-09-19T05:44:17;17.40;99.90
12386;DHT22;6257;57.634;18.310;2023-09-19T05:49:14;17.40;99.90
12386;DHT22;6257;57.634;18.310;2023-09-19T05:51:41;17.40;99.90
12386;DHT22;6257;57.634;18.310;2023-09-19T05:54:08;17.40;99.90
12386;DHT22;6257;57.634;18.310;2023-09-19T05:56:36;17.40;99.90
12386;DHT22;6257;57.634;18.310;2023-09-19T05:59:03;17.40;99.90
12386;DHT22;6257;57.634;18.310;2023-09-19T06:01:31;17.40;99.90
12386;DHT22;6257;57.634;18.310;2023-09-19T06:04:01;17.40;99.90
12386;DHT22;6257;57.634;18.310;2023-09-19T06:06:28;17.40;99.90
12386;DHT22;6257;57.634;18.310;2023-09-19T06:08:55;17.40;99.90
12386;DHT22;6257;57.634;18.310;2023-09-19T06:11:23;17.40;99.90
12386;DHT22;6257;57.634;18.310;2023-09-19T06:13:52;17.40;99.90
12386;DHT22;6257;57.634;18.310;2023-09-19T06:16:19;17.40;99.90
12386;DHT22;6257;57.634;18.310;2023-09-19T06:18:46;17.40;99.90
12386;DHT22;6257;57.634;18.310;2023-09-19T06:23:44;17.40;99.90
12386;DHT22;6257;57.634;18.310;2023-09-19T06:26:11;17.40;99.90
12386;DHT22;6257;57.634;18.310;2023-09-19T06:28:38;17.40;99.90
12386;DHT22;6257;57.634;18.310;2023-09-19T06:31:05;17.40;99.90
12386;DHT22;6257;57.634;18.310;2023-09-19T06:33:35;17.40;99.90
12386;DHT22;6257;57.634;18.310;2023-09-19T06:36:04;17.40;99.90
12386;DHT22;6257;57.634;18.310;2023-09-19T06:38:33;17.40;99.90
12386;DHT22;6257;57.634;18.310;2023-09-19T06:41:02;17.40;99.90
12386;DHT22;6257;57.634;18.310;2023-09-19T06:43:30;17.40;99.90
12386;DHT22;6257;57.634;18.310;2023-09-19T06:45:59;17.40;99.90
12386;DHT22;6257;57.634;18.310;2023-09-19T06:48:27;17.40;99.90
12386;DHT22;6257;57.634;18.310;2023-09-19T06:50:55;17.50;99.90
12386;DHT22;6257;57.634;18.310;2023-09-19T06:53:24;17.50;99.90
12386;DHT22;6257;57.634;18.310;2023-09-19T06:55:52;17.50;99.90
12386;DHT22;6257;57.634;18.310;2023-09-19T06:58:19;17.50;99.90
12386;DHT22;6257;57.634;18.310;2023-09-19T07:00:46;17.50;99.90
12386;DHT22;6257;57.634;18.310;2023-09-19T07:03:15;17.60;99.90
12386;DHT22;6257;57.634;18.310;2023-09-19T07:05:48;17.60;99.90
12386;DHT22;6257;57.634;18.310;2023-09-19T07:08:15;17.60;99.90
12386;DHT22;6257;57.634;18.310;2023-09-19T07:10:44;17.60;99.90
12386;DHT22;6257;57.634;18.310;2023-09-19T07:13:15;17.70;99.90
12386;DHT22;6257;57.634;18.310;2023-09-19T07:15:44;17.80;99.90
12386;DHT22;6257;57.634;18.310;2023-09-19T07:18:13;17.80;99.90
12386;DHT22;6257;57.634;18.310;2023-09-19T07:20:42;17.90;99.90
12386;DHT22;6257;57.634;18.310;2023-09-19T07:23:14;18.00;99.90
12386;DHT22;6257;57.634;18.310;2023-09-19T07:25:43;18.00;99.90
12386;DHT22;6257;57.634;18.310;2023-09-19T07:28:12;18.10;99.90
12386;DHT22;6257;57.634;18.310;2023-09-19T07:30:40;18.10;99.90
12386;DHT22;6257;57.634;18.310;2023-09-19T07:33:08;18.10;99.90
12386;DHT22;6257;57.634;18.310;2023-09-19T07:35:37;18.20;99.90
12386;DHT22;6257;57.634;18.310;2023-09-19T07:38:06;18.20;99.90
12386;DHT22;6257;57.634;18.310;2023-09-19T07:40:33;18.30;99.90
12386;DHT22;6257;57.634;18.310;2023-09-19T07:43:00;18.40;99.90
12386;DHT22;6257;57.634;18.310;2023-09-19T07:45:30;18.50;99.90
12386;DHT22;6257;57.634;18.310;2023-09-19T07:47:59;18.60;99.90
12386;DHT22;6257;57.634;18.310;2023-09-19T07:50:29;18.60;99.90
12386;DHT22;6257;57.634;18.310;2023-09-19T07:52:57;18.60;99.90
12386;DHT22;6257;57.634;18.310;2023-09-19T07:55:24;18.60;99.90
12386;DHT22;6257;57.634;18.310;2023-09-19T07:57:52;18.50;99.90
12386;DHT22;6257;57.634;18.310;2023-09-19T08:00:19;18.40;99.90
12386;DHT22;6257;57.634;18.310;2023-09-19T08:02:46;18.40;99.90
12386;DHT22;6257;57.634;18.310;2023-09-19T08:05:15;18.30;99.90
12386;DHT22;6257;57.634;18.310;2023-09-19T08:07:45;18.40;99.90
12386;DHT22;6257;57.634;18.310;2023-09-19T08:10:15;18.40;99.90
12386;DHT22;6257;57.634;18.310;2023-09-19T08:12:46;18.40;99.90
12386;DHT22;6257;57.634;18.310;2023-09-19T08:15:14;18.50;99.90
12386;DHT22;6257;57.634;18.310;2023-09-19T08:17:41;18.50;99.90
12386;DHT22;6257;57.634;18.310;2023-09-19T08:20:09;18.60;99.90
12386;DHT22;6257;57.634;18.310;2023-09-19T08:22:43;18.80;99.90
12386;DHT22;6257;57.634;18.310;2023-09-19T08:25:13;18.90;99.90
12386;DHT22;6257;57.634;18.310;2023-09-19T08:27:43;18.90;99.90
12386;DHT22;6257;57.634;18.310;2023-09-19T08:30:13;18.80;99.90
12386;DHT22;6257;57.634;18.310;2023-09-19T08:32:41;18.80;99.90
12386;DHT22;6257;57.634;18.310;2023-09-19T08:35:08;18.90;99.90
12386;DHT22;6257;57.634;18.310;2023-09-19T08:37:36;19.00;99.90
12386;DHT22;6257;57.634;18.310;2023-09-19T08:40:06;19.10;99.90
12386;DHT22;6257;57.634;18.310;2023-09-19T08:42:47;19.20;99.90
12386;DHT22;6257;57.634;18.310;2023-09-19T08:45:15;19.10;99.90
12386;DHT22;6257;57.634;18.310;2023-09-19T08:47:46;19.10;99.90
12386;DHT22;6257;57.634;18.310;2023-09-19T08:50:22;19.00;99.90
12386;DHT22;6257;57.634;18.310;2023-09-19T08:52:51;19.00;99.90
12386;DHT22;6257;57.634;18.310;2023-09-19T08:55:26;19.00;99.90
12386;DHT22;6257;57.634;18.310;2023-09-19T08:58:00;18.90;99.90
12386;DHT22;6257;57.634;18.310;2023-09-19T09:00:28;18.90;99.90
12386;DHT22;6257;57.634;18.310;2023-09-19T09:02:56;18.90;99.90
12386;DHT22;6257;57.634;18.310;2023-09-19T09:05:24;18.90;99.90
12386;DHT22;6257;57.634;18.310;2023-09-19T09:07:52;18.90;99.90
12386;DHT22;6257;57.634;18.310;2023-09-19T09:10:23;18.90;99.90
12386;DHT22;6257;57.634;18.310;2023-09-19T09:12:51;18.90;99.90
12386;DHT22;6257;57.634;18.310;2023-09-19T09:15:21;18.90;99.90
12386;DHT22;6257;57.634;18.310;2023-09-19T09:17:49;18.80;99.90
12386;DHT22;6257;57.634;18.310;2023-09-19T09:20:16;18.70;99.90
12386;DHT22;6257;57.634;18.310;2023-09-19T09:22:53;18.60;99.90
12386;DHT22;6257;57.634;18.310;2023-09-19T09:25:22;18.60;99.90
12386;DHT22;6257;57.634;18.310;2023-09-19T09:28:00;18.60;99.90
12386;DHT22;6257;57.634;18.310;2023-09-19T09:30:36;18.60;99.90
12386;DHT22;6257;57.634;18.310;2023-09-19T09:33:10;18.60;99.90
12386;DHT22;6257;57.634;18.310;2023-09-19T09:35:47;18.40;99.90
12386;DHT22;6257;57.634;18.310;2023-09-19T09:38:18;18.30;99.90
12386;DHT22;6257;57.634;18.310;2023-09-19T09:40:50;18.20;99.90
12386;DHT22;6257;57.634;18.310;2023-09-19T09:43:26;18.10;99.90
12386;DHT22;6257;57.634;18.310;2023-09-19T09:46:12;18.10;99.90
12386;DHT22;6257;57.634;18.310;2023-09-19T09:48:58;18.10;99.90
12386;DHT22;6257;57.634;18.310;2023-09-19T09:51:39;18.20;99.90
12386;DHT22;6257;57.634;18.310;2023-09-19T09:54:11;18.20;99.90
12386;DHT22;6257;57.634;18.310;2023-09-19T09:56:57;18.30;99.90
12386;DHT22;6257;57.634;18.310;2023-09-19T09:59:45;18.40;99.90
12386;DHT22;6257;57.634;18.310;2023-09-19T10:02:13;18.50;99.90
12386;DHT22;6257;57.634;18.310;2023-09-19T10:04:46;18.50;99.90
12386;DHT22;6257;57.634;18.310;2023-09-19T10:07:28;18.50;99.90
12386;DHT22;6257;57.634;18.310;2023-09-19T10:09:59;18.50;99.90
12386;DHT22;6257;57.634;18.310;2023-09-19T10:12:40;18.50;99.90
12386;DHT22;6257;57.634;18.310;2023-09-19T10:15:09;18.40;99.90
12386;DHT22;6257;57.634;18.310;2023-09-19T10:17:38;18.40;99.90
12386;DHT22;6257;57.634;18.310;2023-09-19T10:20:07;18.50;99.90
12386;DHT22;6257;57.634;18.310;2023-09-19T10:22:46;18.60;99.90
12386;DHT22;6257;57.634;18.310;2023-09-19T10:25:24;18.70;99.90
12386;DHT22;6257;57.634;18.310;2023-09-19T10:27:54;18.60;99.90
12386;DHT22;6257;57.634;18.310;2023-09-19T10:30:24;18.50;99.90
12386;DHT22;6257;57.634;18.310;2023-09-19T10:32:59;18.70;99.90
12386;DHT22;6257;57.634;18.310;2023-09-19T10:35:27;18.70;99.90
12386;DHT22;6257;57.634;18.310;2023-09-19T10:37:57;18.80;99.90
12386;DHT22;6257;57.634;18.310;2023-09-19T10:40:27;18.90;99.90
12386;DHT22;6257;57.634;18.310;2023-09-19T10:43:03;18.90;99.90
12386;DHT22;6257;57.634;18.310;2023-09-19T10:45:32;18.90;99.90
12386;DHT22;6257;57.634;18.310;2023-09-19T10:48:00;18.90;99.90
12386;DHT22;6257;57.634;18.310;2023-09-19T10:50:31;18.90;99.90
12386;DHT22;6257;57.634;18.310;2023-09-19T10:53:01;18.90;99.90
12386;DHT22;6257;57.634;18.310;2023-09-19T10:55:31;19.00;99.90
12386;DHT22;6257;57.634;18.310;2023-09-19T10:57:59;18.90;99.90
12386;DHT22;6257;57.634;18.310;2023-09-19T11:00:30;18.80;99.90
12386;DHT22;6257;57.634;18.310;2023-09-19T11:03:19;18.80;99.90
12386;DHT22;6257;57.634;18.310;2023-09-19T11:06:06;18.80;99.90
12386;DHT22;6257;57.634;18.310;2023-09-19T11:08:52;18.60;99.90
12386;DHT22;6257;57.634;18.310;2023-09-19T11:11:56;18.60;99.90
12386;DHT22;6257;57.634;18.310;2023-09-19T11:14:40;18.70;99.90
12386;DHT22;6257;57.634;18.310;2023-09-19T11:17:41;18.70;99.90
12386;DHT22;6257;57.634;18.310;2023-09-19T11:20:30;18.80;99.90
12386;DHT22;6257;57.634;18.310;2023-09-19T11:23:21;18.80;99.90
12386;DHT22;6257;57.634;18.310;2023-09-19T11:25:49;18.80;99.90
12386;DHT22;6257;57.634;18.310;2023-09-19T11:28:30;18.80;99.90
12386;DHT22;6257;57.634;18.310;2023-09-19T11:30:58;18.80;99.90
12386;DHT22;6257;57.634;18.310;2023-09-19T11:33:27;18.80;99.90
12386;DHT22;6257;57.634;18.310;2023-09-19T11:36:00;18.80;99.90
12386;DHT22;6257;57.634;18.310;2023-09-19T11:38:59;18.80;99.90
12386;DHT22;6257;57.634;18.310;2023-09-19T11:41:37;18.80;99.90
12386;DHT22;6257;57.634;18.310;2023-09-19T11:44:33;18.80;99.90
12386;DHT22;6257;57.634;18.310;2023-09-19T11:47:04;18.80;99.90
12386;DHT22;6257;57.634;18.310;2023-09-19T11:49:34;18.80;99.90
12386;DHT22;6257;57.634;18.310;2023-09-19T11:52:03;18.80;99.90
12386;DHT22;6257;57.634;18.310;2023-09-19T11:54:34;18.90;99.90
12386;DHT22;6257;57.634;18.310;2023-09-19T11:57:05;18.90;99.90
12386;DHT22;6257;57.634;18.310;2023-09-19T11:59:33;18.90;99.90
12386;DHT22;6257;57.634;18.310;2023-09-19T12:02:04;18.90;99.90
12386;DHT22;6257;57.634;18.310;2023-09-19T12:04:37;18.90;99.90
12386;DHT22;6257;57.634;18.310;2023-09-19T12:07:07;18.90;99.90
12386;DHT22;6257;57.634;18.310;2023-09-19T12:09:39;18.80;99.90
12386;DHT22;6257;57.634;18.310;2023-09-19T12:12:09;18.80;99.90
12386;DHT22;6257;57.634;18.310;2023-09-19T12:14:38;18.70;99.90
12386;DHT22;6257;57.634;18.310;2023-09-19T12:17:07;18.60;99.90
12386;DHT22;6257;57.634;18.310;2023-09-19T12:19:36;18.60;99.90
12386;DHT22;6257;57.634;18.310;2023-09-19T12:22:03;18.50;99.90
12386;DHT22;6257;57.634;18.310;2023-09-19T12:24:31;18.60;99.90
12386;DHT22;6257;57.634;18.310;2023-09-19T12:27:01;18.60;99.90
12386;DHT22;6257;57.634;18.310;2023-09-19T12:29:30;18.70;99.90
12386;DHT22;6257;57.634;18.310;2023-09-19T12:31:58;18.70;99.90
12386;DHT22;6257;57.634;18.310;2023-09-19T12:34:30;18.70;99.90
12386;DHT22;6257;57.634;18.310;2023-09-19T12:37:06;18.60;99.90
12386;DHT22;6257;57.634;18.310;2023-09-19T12:39:38;18.40;99.90
12386;DHT22;6257;57.634;18.310;2023-09-19T12:42:08;18.40;99.90
12386;DHT22;6257;57.634;18.310;2023-09-19T12:44:36;18.40;99.90
12386;DHT22;6257;57.634;18.310;2023-09-19T12:47:09;18.40;99.90
12386;DHT22;6257;57.634;18.310;2023-09-19T12:50:07;18.30;99.90
12386;DHT22;6257;57.634;18.310;2023-09-19T12:52:41;18.30;99.90
12386;DHT22;6257;57.634;18.310;2023-09-19T12:55:19;18.30;99.90
12386;DHT22;6257;57.634;18.310;2023-09-19T12:57:59;18.30;99.90
12386;DHT22;6257;57.634;18.310;2023-09-19T13:00:33;18.20;99.90
12386;DHT22;6257;57.634;18.310;2023-09-19T13:03:14;18.20;99.90
12386;DHT22;6257;57.634;18.310;2023-09-19T13:05:51;18.10;99.90
12386;DHT22;6257;57.634;18.310;2023-09-19T13:08:25;18.10;99.90
12386;DHT22;6257;57.634;18.310;2023-09-19T13:11:12;18.10;99.90
12386;DHT22;6257;57.634;18.310;2023-09-19T13:13:41;18.00;99.90
12386;DHT22;6257;57.634;18.310;2023-09-19T13:16:10;18.10;99.90
12386;DHT22;6257;57.634;18.310;2023-09-19T13:18:47;18.10;99.90
12386;DHT22;6257;57.634;18.310;2023-09-19T13:21:17;18.00;99.90
12386;DHT22;6257;57.634;18.310;2023-09-19T13:23:53;17.90;99.90
12386;DHT22;6257;57.634;18.310;2023-09-19T13:26:24;17.70;99.90
12386;DHT22;6257;57.634;18.310;2023-09-19T13:28:51;17.70;99.90
12386;DHT22;6257;57.634;18.310;2023-09-19T13:31:18;17.70;99.90
12386;DHT22;6257;57.634;18.310;2023-09-19T13:33:47;17.60;99.90
12386;DHT22;6257;57.634;18.310;2023-09-19T13:36:15;17.40;99.90
12386;DHT22;6257;57.634;18.310;2023-09-19T13:38:44;17.10;99.90
12386;DHT22;6257;57.634;18.310;2023-09-19T13:41:15;17.10;99.90
12386;DHT22;6257;57.634;18.310;2023-09-19T13:43:43;17.10;99.90
12386;DHT22;6257;57.634;18.310;2023-09-19T13:46:13;17.00;99.90
12386;DHT22;6257;57.634;18.310;2023-09-19T13:48:42;15.60;99.90
12386;DHT22;6257;57.634;18.310;2023-09-19T13:51:09;16.80;99.90
12386;DHT22;6257;57.634;18.310;2023-09-19T13:53:36;16.70;99.90
12386;DHT22;6257;57.634;18.310;2023-09-19T13:56:03;15.40;99.90
12386;DHT22;6257;57.634;18.310;2023-09-19T13:58:31;16.50;99.90
12386;DHT22;6257;57.634;18.310;2023-09-19T14:00:59;16.30;99.90
12386;DHT22;6257;57.634;18.310;2023-09-19T14:03:26;16.30;99.90
12386;DHT22;6257;57.634;18.310;2023-09-19T14:05:54;16.20;99.90
12386;DHT22;6257;57.634;18.310;2023-09-19T14:08:21;16.30;99.90
12386;DHT22;6257;57.634;18.310;2023-09-19T14:10:49;16.50;99.90
12386;DHT22;6257;57.634;18.310;2023-09-19T14:13:16;16.50;99.90
12386;DHT22;6257;57.634;18.310;2023-09-19T14:15:44;16.50;99.90
12386;DHT22;6257;57.634;18.310;2023-09-19T14:18:11;16.50;99.90
12386;DHT22;6257;57.634;18.310;2023-09-19T14:20:39;16.50;99.90
12386;DHT22;6257;57.634;18.310;2023-09-19T14:23:07;16.40;99.90
12386;DHT22;6257;57.634;18.310;2023-09-19T14:25:35;16.40;99.90
12386;DHT22;6257;57.634;18.310;2023-09-19T14:28:02;16.30;99.90
12386;DHT22;6257;57.634;18.310;2023-09-19T14:30:29;14.90;99.90
12386;DHT22;6257;57.634;18.310;2023-09-19T14:32:57;16.30;99.90
12386;DHT22;6257;57.634;18.310;2023-09-19T14:35:25;16.20;99.90
12386;DHT22;6257;57.634;18.310;2023-09-19T14:37:51;16.20;99.90
12386;DHT22;6257;57.634;18.310;2023-09-19T14:40:18;16.20;99.90
12386;DHT22;6257;57.634;18.310;2023-09-19T14:42:46;16.20;99.90
12386;DHT22;6257;57.634;18.310;2023-09-19T14:45:13;14.90;99.90
12386;DHT22;6257;57.634;18.310;2023-09-19T14:47:43;16.20;99.90
12386;DHT22;6257;57.634;18.310;2023-09-19T14:50:12;16.20;99.90
12386;DHT22;6257;57.634;18.310;2023-09-19T14:52:40;16.20;99.90
12386;DHT22;6257;57.634;18.310;2023-09-19T14:55:08;16.30;99.90
12386;DHT22;6257;57.634;18.310;2023-09-19T14:57:40;16.30;99.90
12386;DHT22;6257;57.634;18.310;2023-09-19T15:00:10;16.30;99.90
12386;DHT22;6257;57.634;18.310;2023-09-19T15:02:38;16.30;99.90
12386;DHT22;6257;57.634;18.310;2023-09-19T15:05:06;16.20;99.90
12386;DHT22;6257;57.634;18.310;2023-09-19T15:07:35;16.20;99.90
12386;DHT22;6257;57.634;18.310;2023-09-19T15:10:04;16.20;99.90
12386;DHT22;6257;57.634;18.310;2023-09-19T15:12:32;16.10;99.90
12386;DHT22;6257;57.634;18.310;2023-09-19T15:15:00;16.00;99.90
12386;DHT22;6257;57.634;18.310;2023-09-19T15:17:28;16.00;99.90
12386;DHT22;6257;57.634;18.310;2023-09-19T15:19:55;16.00;99.90
12386;DHT22;6257;57.634;18.310;2023-09-19T15:22:22;16.00;99.90
12386;DHT22;6257;57.634;18.310;2023-09-19T15:27:19;16.00;99.90
12386;DHT22;6257;57.634;18.310;2023-09-19T15:29:46;15.90;99.90
12386;DHT22;6257;57.634;18.310;2023-09-19T15:32:13;15.80;99.90
12386;DHT22;6257;57.634;18.310;2023-09-19T15:34:40;15.80;99.90
12386;DHT22;6257;57.634;18.310;2023-09-19T15:37:07;15.70;99.90
12386;DHT22;6257;57.634;18.310;2023-09-19T15:39:34;15.70;99.90
12386;DHT22;6257;57.634;18.310;2023-09-19T15:42:04;15.60;99.90
12386;DHT22;6257;57.634;18.310;2023-09-19T15:44:31;15.60;99.90
12386;DHT22;6257;57.634;18.310;2023-09-19T15:46:59;15.50;99.90
12386;DHT22;6257;57.634;18.310;2023-09-19T15:49:26;15.60;99.90
12386;DHT22;6257;57.634;18.310;2023-09-19T15:51:53;15.60;99.90
12386;DHT22;6257;57.634;18.310;2023-09-19T15:54:20;15.60;99.90
12386;DHT22;6257;57.634;18.310;2023-09-19T15:56:47;15.60;99.90
12386;DHT22;6257;57.634;18.310;2023-09-19T15:59:17;15.70;99.90
12386;DHT22;6257;57.634;18.310;2023-09-19T16:01:44;17.00;99.90
12386;DHT22;6257;57.634;18.310;2023-09-19T16:04:12;15.70;99.90
12386;DHT22;6257;57.634;18.310;2023-09-19T16:06:39;15.60;99.90